createdAt,value
2023-05-10T00:02:18.249Z,54.58
2023-05-10T00:04:49.534Z,54.31
2023-05-10T00:07:18.114Z,55.84
2023-05-10T00:09:44.660Z,56.61
2023-05-10T00:12:11.271Z,55.13
2023-05-10T00:14:37.700Z,57.74
2023-05-10T00:17:04.130Z,58.01
2023-05-10T00:19:30.594Z,57.88
2023-05-10T00:21:57.376Z,58.32
2023-05-10T00:24:23.798Z,57.68
2023-05-10T00:26:50.306Z,57.26
2023-05-10T00:29:16.758Z,57.61
2023-05-10T00:31:43.231Z,56.90
2023-05-10T00:34:10.096Z,58.14
2023-05-10T00:36:36.458Z,58.70
2023-05-10T00:39:04.503Z,60.02
2023-05-10T00:41:33.721Z,58.57
2023-05-10T00:44:00.203Z,58.37
2023-05-10T00:46:26.862Z,58.05
2023-05-10T00:48:53.631Z,58.53
2023-05-10T00:51:20.054Z,59.24
2023-05-10T00:53:47.020Z,57.02
2023-05-10T00:56:14.029Z,57.87
2023-05-10T00:58:40.978Z,57.96
2023-05-10T01:01:07.969Z,57.40
2023-05-10T01:03:34.552Z,59.72
2023-05-10T01:06:01.185Z,58.75
2023-05-10T01:08:27.850Z,59.53
2023-05-10T01:10:54.780Z,59.21
2023-05-10T01:13:38.420Z,58.81
2023-05-10T01:16:05.443Z,59.90
2023-05-10T01:18:33.872Z,59.58
2023-05-10T01:21:12.423Z,60.22
2023-05-10T01:23:46.566Z,60.42
2023-05-10T01:26:40.574Z,60.48
2023-05-10T01:29:25.756Z,59.39
2023-05-10T01:32:01.330Z,60.45
2023-05-10T01:34:51.565Z,61.54
2023-05-10T01:51:45.747Z,63.46
2023-05-10T01:54:14.157Z,61.68
2023-05-10T01:56:48.946Z,62.16
2023-05-10T01:59:19.336Z,60.12
2023-05-10T02:01:48.040Z,61.76
2023-05-10T02:04:17.897Z,61.84
2023-05-10T02:06:48.957Z,61.13
2023-05-10T02:09:16.750Z,61.24
2023-05-10T02:11:44.642Z,59.25
2023-05-10T02:14:12.629Z,60.70
2023-05-10T02:16:41.155Z,60.63
2023-05-10T02:19:09.803Z,61.39
2023-05-10T02:21:37.326Z,60.33
2023-05-10T02:24:09.704Z,61.38
2023-05-10T02:26:39.106Z,58.91
2023-05-10T02:29:07.668Z,60.07
2023-05-10T02:31:36.267Z,59.06
2023-05-10T02:34:03.882Z,60.47
2023-05-10T02:36:30.865Z,60.62
2023-05-10T02:38:58.608Z,61.66
2023-05-10T02:41:27.373Z,60.22
2023-05-10T02:43:58.186Z,59.70
2023-05-10T02:46:26.875Z,60.42
2023-05-10T02:48:55.037Z,59.21
2023-05-10T02:51:28.469Z,59.91
2023-05-10T02:53:57.576Z,61.08
2023-05-10T02:56:34.242Z,59.65
2023-05-10T02:59:00.824Z,60.29
2023-05-10T03:01:27.337Z,60.10
2023-05-10T03:03:53.864Z,61.29
2023-05-10T03:06:20.342Z,60.59
2023-05-10T03:08:48.407Z,62.24
2023-05-10T03:11:33.665Z,62.89
2023-05-10T03:14:41.409Z,60.76
2023-05-10T03:17:16.589Z,60.85
2023-05-10T03:19:54.120Z,60.75
2023-05-10T03:22:33.344Z,60.74
2023-05-10T03:25:05.170Z,62.12
2023-05-10T03:27:32.468Z,59.52
2023-05-10T03:29:59.028Z,59.95
2023-05-10T03:32:25.687Z,60.94
2023-05-10T03:34:52.117Z,59.44
2023-05-10T03:37:18.563Z,61.74
2023-05-10T03:39:45.111Z,61.84
2023-05-10T03:42:12.986Z,62.70
2023-05-10T03:44:43.006Z,60.68
2023-05-10T03:47:09.755Z,59.98
2023-05-10T03:49:36.282Z,61.44
2023-05-10T03:52:02.727Z,61.99
2023-05-10T03:54:29.228Z,61.42
2023-05-10T03:56:55.747Z,61.19
2023-05-10T03:59:22.235Z,59.50
2023-05-10T04:01:48.720Z,59.78
2023-05-10T04:04:15.258Z,61.11
2023-05-10T04:06:41.771Z,63.04
2023-05-10T04:09:09.444Z,61.89
2023-05-10T04:11:36.034Z,61.08
2023-05-10T04:14:02.540Z,62.09
2023-05-10T04:16:29.005Z,61.41
2023-05-10T04:18:55.496Z,60.61
2023-05-10T04:21:21.967Z,62.77
2023-05-10T04:23:48.692Z,60.82
2023-05-10T04:26:15.220Z,61.79
2023-05-10T04:28:41.748Z,60.36
2023-05-10T04:31:20.779Z,60.83
2023-05-10T04:33:47.249Z,61.90
2023-05-10T04:36:13.760Z,62.75
2023-05-10T04:38:40.319Z,61.53
2023-05-10T04:41:08.774Z,62.61
2023-05-10T04:43:35.875Z,60.37
2023-05-10T04:46:02.398Z,61.33
2023-05-10T04:48:29.335Z,59.38
2023-05-10T04:50:55.945Z,61.37
2023-05-10T04:53:22.360Z,62.40
2023-05-10T04:55:49.129Z,59.55
2023-05-10T04:58:15.713Z,59.59
2023-05-10T05:00:42.685Z,60.61
2023-05-10T05:03:09.522Z,60.83
2023-05-10T05:05:36.106Z,62.47
2023-05-10T05:08:02.611Z,61.46
2023-05-10T05:10:29.116Z,59.96
2023-05-10T05:12:55.642Z,60.13
2023-05-10T05:15:44.681Z,58.74
2023-05-10T05:18:21.291Z,59.19
2023-05-10T05:20:47.706Z,57.90
2023-05-10T05:23:14.167Z,58.86
2023-05-10T05:25:40.666Z,59.02
2023-05-10T05:28:07.142Z,59.96
2023-05-10T05:30:33.717Z,58.36
2023-05-10T05:33:00.396Z,58.13
2023-05-10T05:35:27.095Z,56.20
2023-05-10T05:37:53.533Z,58.43
2023-05-10T05:40:21.366Z,58.74
2023-05-10T05:42:47.897Z,58.42
2023-05-10T05:45:14.713Z,57.57
2023-05-10T05:47:42.455Z,56.42
2023-05-10T05:50:10.746Z,55.19
2023-05-10T05:52:37.397Z,55.85
2023-05-10T05:55:04.730Z,56.81
2023-05-10T05:57:31.428Z,56.45
2023-05-10T05:59:58.101Z,56.23
2023-05-10T06:02:25.875Z,57.49
2023-05-10T06:04:55.930Z,58.50
2023-05-10T06:07:22.605Z,55.16
2023-05-10T06:09:50.265Z,55.42
2023-05-10T06:12:16.728Z,53.69
2023-05-10T06:14:43.210Z,52.60
2023-05-10T06:17:09.845Z,52.64
2023-05-10T06:19:36.731Z,55.48
2023-05-10T06:22:03.328Z,52.63
2023-05-10T06:24:29.937Z,52.82
2023-05-10T06:26:56.566Z,54.12
2023-05-10T06:29:23.272Z,54.47
2023-05-10T06:31:52.328Z,51.75
2023-05-10T06:34:19.007Z,52.51
2023-05-10T06:36:45.619Z,54.54
2023-05-10T06:39:13.098Z,53.46
2023-05-10T06:41:44.970Z,53.86
2023-05-10T06:44:11.642Z,53.43
2023-05-10T06:46:38.249Z,51.29
2023-05-10T06:49:05.529Z,54.45
2023-05-10T06:51:34.251Z,51.05
2023-05-10T06:54:01.207Z,50.88
2023-05-10T06:56:27.902Z,50.60
2023-05-10T06:58:54.472Z,51.03
2023-05-10T07:01:21.024Z,51.81
2023-05-10T07:03:47.511Z,50.32
2023-05-10T07:06:29.282Z,48.75
2023-05-10T07:08:59.141Z,47.64
2023-05-10T07:11:25.815Z,46.69
2023-05-10T07:13:52.252Z,45.51
2023-05-10T07:16:18.728Z,46.21
2023-05-10T07:18:45.692Z,47.13
2023-05-10T07:21:12.251Z,45.36
2023-05-10T07:23:38.787Z,47.11
2023-05-10T07:26:08.061Z,46.94
2023-05-10T07:28:38.667Z,46.94
2023-05-10T07:31:05.630Z,45.25
2023-05-10T07:33:32.153Z,47.03
2023-05-10T07:35:58.951Z,47.50
2023-05-10T07:38:25.703Z,45.24
2023-05-10T07:40:55.486Z,44.90
2023-05-10T07:43:22.301Z,45.46
2023-05-10T07:45:49.326Z,46.58
2023-05-10T07:48:16.125Z,43.00
2023-05-10T07:50:42.547Z,42.90
2023-05-10T07:53:11.624Z,41.78
2023-05-10T07:55:41.885Z,40.64
2023-05-10T07:58:08.318Z,39.68
2023-05-10T08:00:35.030Z,40.24
2023-05-10T08:03:01.628Z,41.24
2023-05-10T08:05:28.450Z,42.33
2023-05-10T08:07:54.859Z,42.17
2023-05-10T08:10:26.101Z,42.35
2023-05-10T08:12:53.087Z,45.38
2023-05-10T08:15:19.976Z,45.23
2023-05-10T08:17:46.879Z,43.56
2023-05-10T08:20:17.834Z,46.97
2023-05-10T08:22:44.396Z,44.86
2023-05-10T08:25:11.149Z,45.43
2023-05-10T08:27:37.971Z,43.31
2023-05-10T08:30:57.021Z,44.37
2023-05-10T08:33:23.788Z,44.84
2023-05-10T08:35:59.757Z,44.02
2023-05-10T08:38:27.090Z,43.92
2023-05-10T08:40:57.674Z,44.82
2023-05-10T08:43:29.337Z,41.41
2023-05-10T08:45:59.780Z,43.07
2023-05-10T08:48:30.595Z,41.93
2023-05-10T08:51:00.736Z,43.94
2023-05-10T08:53:28.441Z,41.35
2023-05-10T08:55:55.497Z,40.59
2023-05-10T08:58:22.045Z,43.73
2023-05-10T09:00:51.916Z,42.68
2023-05-10T09:03:19.893Z,44.17
2023-05-10T09:05:46.920Z,41.48
2023-05-10T09:08:15.472Z,41.14
2023-05-10T09:10:48.434Z,40.54
2023-05-10T09:13:16.665Z,41.38
2023-05-10T09:15:45.357Z,40.31
2023-05-10T09:18:12.263Z,42.02
2023-05-10T09:20:38.968Z,42.04
2023-05-10T09:23:06.100Z,42.56
2023-05-10T09:25:35.730Z,42.33
2023-05-10T09:28:02.620Z,40.62
2023-05-10T09:30:33.146Z,42.31
2023-05-10T09:33:00.912Z,39.99
2023-05-10T09:35:33.164Z,43.62
2023-05-10T09:38:03.429Z,41.27
2023-05-10T09:40:31.134Z,39.75
2023-05-10T09:43:07.304Z,42.09
2023-05-10T09:45:38.287Z,41.83
2023-05-10T09:48:08.108Z,41.70
2023-05-10T09:50:35.474Z,41.86
2023-05-10T09:53:04.772Z,41.16
2023-05-10T09:55:45.133Z,41.24
2023-05-10T09:58:14.714Z,40.82
2023-05-10T10:00:42.723Z,41.14
2023-05-10T10:03:18.423Z,39.30
2023-05-10T10:05:46.300Z,38.98
2023-05-10T10:08:13.827Z,39.64
2023-05-10T10:10:47.214Z,41.57
2023-05-10T10:13:14.252Z,39.27
2023-05-10T10:15:44.111Z,41.48
2023-05-10T10:18:14.492Z,40.93
2023-05-10T10:20:41.670Z,39.85
2023-05-10T10:23:09.127Z,39.37
2023-05-10T10:25:36.380Z,39.48
2023-05-10T10:28:17.398Z,39.90
2023-05-10T10:30:46.980Z,41.56
2023-05-10T10:33:34.828Z,39.36
2023-05-10T10:36:03.600Z,39.73
2023-05-10T10:39:00.256Z,39.42
2023-05-10T10:41:34.129Z,39.55
2023-05-10T10:44:26.825Z,38.23
2023-05-10T10:47:24.356Z,39.68
2023-05-10T10:49:53.188Z,38.64
2023-05-10T10:52:38.225Z,38.81
2023-05-10T10:55:12.719Z,40.08
2023-05-10T10:57:42.384Z,39.09
2023-05-10T11:00:29.165Z,38.76
2023-05-10T11:03:07.785Z,40.59
2023-05-10T11:05:35.529Z,38.44
2023-05-10T11:08:09.859Z,39.70
2023-05-10T11:10:38.017Z,38.76
2023-05-10T11:13:06.997Z,38.27
2023-05-10T11:15:49.683Z,37.38
2023-05-10T11:18:25.844Z,37.00
2023-05-10T11:20:57.506Z,38.74
2023-05-10T11:23:30.181Z,38.65
2023-05-10T11:25:56.889Z,40.19
2023-05-10T11:28:23.986Z,39.25
2023-05-10T11:30:50.914Z,38.03
2023-05-10T11:33:19.136Z,36.70
2023-05-10T11:35:45.868Z,38.14
2023-05-10T11:38:14.307Z,40.76
2023-05-10T11:40:41.940Z,38.79
2023-05-10T11:43:11.416Z,38.69
2023-05-10T11:51:49.708Z,37.93
2023-05-10T11:54:24.145Z,37.80
2023-05-10T12:16:16.830Z,38.46
2023-05-10T12:19:11.613Z,38.80
2023-05-10T12:22:46.261Z,36.98
2023-05-10T12:29:20.409Z,38.70
2023-05-10T12:39:04.130Z,35.48
2023-05-10T12:41:51.856Z,35.20
2023-05-10T13:03:52.632Z,36.05
2023-05-10T13:06:18.992Z,35.28
2023-05-10T13:08:51.008Z,34.86
2023-05-10T13:11:21.232Z,35.72
2023-05-10T13:13:47.876Z,37.01
2023-05-10T13:16:19.551Z,36.22
2023-05-10T13:18:46.161Z,36.55
2023-05-10T13:21:14.055Z,37.97
2023-05-10T13:23:43.410Z,36.80
2023-05-10T13:26:21.260Z,37.74
2023-05-10T13:38:25.975Z,33.31
2023-05-10T13:40:55.063Z,34.19
2023-05-10T13:43:23.162Z,33.29
2023-05-10T13:45:49.738Z,33.66
2023-05-10T13:48:16.639Z,35.26
2023-05-10T13:50:45.485Z,34.20
2023-05-10T13:53:12.361Z,32.38
2023-05-10T13:55:43.576Z,31.78
2023-05-10T13:59:17.914Z,33.96
2023-05-10T14:01:48.246Z,33.55
2023-05-10T14:04:14.809Z,32.07
2023-05-10T14:06:41.680Z,32.23
2023-05-10T14:09:22.557Z,34.20
2023-05-10T14:12:06.449Z,33.10
2023-05-10T14:14:33.582Z,33.75
2023-05-10T14:17:00.424Z,32.55
2023-05-10T14:19:35.032Z,33.17
2023-05-10T14:22:01.528Z,34.10
2023-05-10T14:24:28.036Z,32.95
2023-05-10T14:26:57.662Z,32.39
2023-05-10T14:29:24.485Z,33.35
2023-05-10T14:32:06.995Z,33.92
2023-05-10T14:34:33.889Z,30.88
2023-05-10T14:37:00.380Z,31.14
2023-05-10T14:39:26.816Z,31.84
2023-05-10T14:41:53.627Z,30.84
2023-05-10T14:44:20.495Z,32.91
2023-05-10T14:46:47.456Z,31.08
2023-05-10T14:49:23.350Z,31.71
2023-05-10T14:52:09.661Z,32.02
2023-05-10T14:54:36.239Z,33.48
2023-05-10T14:57:02.673Z,34.30
2023-05-10T14:59:29.179Z,29.83
2023-05-10T15:01:56.664Z,29.81
2023-05-10T15:04:28.366Z,31.44
2023-05-10T15:07:00.217Z,30.99
2023-05-10T15:09:28.554Z,30.23
2023-05-10T15:11:55.961Z,33.06
2023-05-10T15:14:23.520Z,30.25
2023-05-10T15:16:58.904Z,31.60
2023-05-10T15:19:25.439Z,33.49
2023-05-10T15:21:51.900Z,31.74
2023-05-10T15:24:19.333Z,30.33
2023-05-10T15:26:48.705Z,32.73
2023-05-10T15:29:20.973Z,31.01
2023-05-10T15:31:52.099Z,34.01
2023-05-10T15:34:22.211Z,34.25
2023-05-10T15:37:14.263Z,35.21
2023-05-10T15:39:41.864Z,36.91
2023-05-10T15:42:08.627Z,34.59
2023-05-10T15:44:36.229Z,36.02
2023-05-10T15:47:03.833Z,38.91
2023-05-10T15:49:31.442Z,38.57
2023-05-10T15:51:58.062Z,37.33
2023-05-10T15:54:24.523Z,36.21
2023-05-10T15:56:50.960Z,36.84
2023-05-10T15:59:17.471Z,39.20
2023-05-10T16:01:44.016Z,38.74
2023-05-10T16:04:10.481Z,39.28
2023-05-10T16:06:38.095Z,42.52
2023-05-10T16:09:04.880Z,39.92
2023-05-10T16:11:31.608Z,41.04
2023-05-10T16:19:54.365Z,42.49
2023-05-10T16:27:01.502Z,41.28
2023-05-10T16:33:30.537Z,41.23
2023-05-10T16:36:39.550Z,46.88
2023-05-10T16:54:43.044Z,51.47
2023-05-10T16:57:09.988Z,51.80
2023-05-10T16:59:36.914Z,53.11
2023-05-10T17:02:03.786Z,52.71
2023-05-10T17:04:34.066Z,53.47
2023-05-10T17:07:00.722Z,54.25
2023-05-10T17:09:27.314Z,54.59
2023-05-10T17:11:57.893Z,54.23
2023-05-10T17:14:30.350Z,54.53
2023-05-10T17:16:57.099Z,54.67
2023-05-10T17:19:26.303Z,54.79
2023-05-10T17:21:53.159Z,55.34
2023-05-10T17:24:19.618Z,55.78
2023-05-10T17:26:46.175Z,55.34
2023-05-10T17:29:14.142Z,55.83
2023-05-10T17:31:46.571Z,56.29
2023-05-10T17:34:13.141Z,56.85
2023-05-10T17:36:39.997Z,57.22
2023-05-10T17:39:14.478Z,56.72
2023-05-10T17:42:02.771Z,56.96
2023-05-10T17:44:36.821Z,58.29
2023-05-10T17:47:03.719Z,58.88
2023-05-10T17:49:30.458Z,60.01
2023-05-10T17:51:57.024Z,59.29
2023-05-10T17:54:29.504Z,59.96
2023-05-10T17:57:06.011Z,59.86
2023-05-10T17:59:41.823Z,59.44
2023-05-10T18:02:08.650Z,59.86
2023-05-10T18:04:37.848Z,59.38
2023-05-10T18:07:04.752Z,60.17
2023-05-10T18:09:31.869Z,60.64
2023-05-10T18:12:04.709Z,62.27
2023-05-10T18:14:40.738Z,61.44
2023-05-10T18:17:09.402Z,62.18
2023-05-10T18:19:36.234Z,62.59
2023-05-10T18:22:03.238Z,62.46
2023-05-10T18:27:09.175Z,64.61
2023-05-10T18:29:48.254Z,64.83
2023-05-10T18:32:15.008Z,65.39
2023-05-10T18:34:41.617Z,65.36
2023-05-10T18:37:09.697Z,66.40
2023-05-10T18:39:37.390Z,66.06
2023-05-10T18:42:05.316Z,66.12
2023-05-10T18:44:31.986Z,67.00
2023-05-10T18:46:59.421Z,66.88
2023-05-10T18:49:27.541Z,67.93
2023-05-10T18:52:00.628Z,67.27
2023-05-10T18:54:27.559Z,68.30
2023-05-10T18:56:54.257Z,67.76
2023-05-10T18:59:20.861Z,67.69
2023-05-10T19:01:49.476Z,67.83
2023-05-10T19:04:17.492Z,68.21
2023-05-10T19:06:44.360Z,69.12
2023-05-10T19:09:13.312Z,68.94
2023-05-10T19:11:41.126Z,68.67
2023-05-10T19:14:07.842Z,69.35
2023-05-10T19:16:34.738Z,70.55
2023-05-10T19:19:02.144Z,71.01
2023-05-10T19:21:29.199Z,71.91
2023-05-10T19:23:58.389Z,71.59
2023-05-10T19:26:25.051Z,71.53
2023-05-10T19:28:52.623Z,71.34
2023-05-10T19:31:20.219Z,71.21
2023-05-10T19:33:47.274Z,71.12
2023-05-10T19:36:13.993Z,71.23
2023-05-10T19:38:40.738Z,70.90
2023-05-10T19:41:07.412Z,71.72
2023-05-10T19:43:40.443Z,72.36
2023-05-10T19:46:09.032Z,72.93
2023-05-10T19:48:36.070Z,72.62
2023-05-10T19:51:08.651Z,72.86
2023-05-10T19:53:36.933Z,72.64
2023-05-10T19:56:07.335Z,72.52
2023-05-10T19:58:38.019Z,72.61
2023-05-10T20:01:11.338Z,72.36
2023-05-10T20:03:38.306Z,72.19
2023-05-10T20:06:05.465Z,72.63
2023-05-10T20:08:34.556Z,72.61
2023-05-10T20:11:04.062Z,71.97
2023-05-10T20:13:33.512Z,72.21
2023-05-10T20:16:00.567Z,72.30
2023-05-10T20:18:27.307Z,72.30
2023-05-10T20:20:54.943Z,72.02
2023-05-10T20:23:22.478Z,72.81
2023-05-10T20:25:51.683Z,72.80
2023-05-10T20:28:23.877Z,72.65
2023-05-10T20:30:55.002Z,72.29
2023-05-10T20:33:22.711Z,72.39
2023-05-10T20:35:50.377Z,72.78
2023-05-10T20:38:18.293Z,72.78
2023-05-10T20:40:44.954Z,73.31
2023-05-10T20:43:11.523Z,73.55
2023-05-10T20:45:38.120Z,73.48
2023-05-10T20:48:05.124Z,73.95
2023-05-10T20:50:31.799Z,73.59
2023-05-10T20:52:58.467Z,73.37
2023-05-10T20:55:25.020Z,74.25
2023-05-10T20:57:51.732Z,73.87
2023-05-10T21:00:18.613Z,73.66
2023-05-10T21:02:46.530Z,74.28
2023-05-10T21:05:13.229Z,74.33
2023-05-10T21:07:39.919Z,73.94
2023-05-10T21:10:08.213Z,73.99
2023-05-10T21:12:34.753Z,73.60
2023-05-10T21:15:01.296Z,73.60
2023-05-10T21:17:27.778Z,73.76
2023-05-10T21:19:54.329Z,74.12
2023-05-10T21:22:20.859Z,74.72
2023-05-10T21:24:47.347Z,75.32
2023-05-10T21:27:13.799Z,75.58
2023-05-10T21:29:40.294Z,75.17
2023-05-10T21:32:06.801Z,74.94
2023-05-10T21:34:33.780Z,75.22
2023-05-10T21:37:00.361Z,75.86
2023-05-10T21:39:26.844Z,76.02
2023-05-10T21:41:53.763Z,75.51
2023-05-10T21:44:20.268Z,77.60
2023-05-10T21:46:46.743Z,78.30
2023-05-10T21:49:13.237Z,76.69
2023-05-10T21:51:39.742Z,77.53
2023-05-10T21:54:06.358Z,78.28
2023-05-10T21:56:32.789Z,78.22
2023-05-10T21:58:59.261Z,78.56
2023-05-10T22:01:27.510Z,79.77
2023-05-10T22:03:54.125Z,79.10
2023-05-10T22:06:20.585Z,80.80
2023-05-10T22:08:47.044Z,80.46
2023-05-10T22:11:13.549Z,80.17
2023-05-10T22:13:40.040Z,79.77
2023-05-10T22:16:06.966Z,80.23
2023-05-10T22:18:33.463Z,80.12
2023-05-10T22:21:00.124Z,79.85
2023-05-10T22:23:26.621Z,80.63
2023-05-10T22:25:53.144Z,81.96
2023-05-10T22:28:19.654Z,81.55
2023-05-10T22:30:46.207Z,81.81
2023-05-10T22:33:12.714Z,80.69
2023-05-10T22:35:39.182Z,80.94
2023-05-10T22:38:05.631Z,80.78
2023-05-10T22:40:32.230Z,80.21
2023-05-10T22:42:58.763Z,81.21
2023-05-10T22:45:25.793Z,81.43
2023-05-10T22:47:52.454Z,81.75
2023-05-10T22:50:19.346Z,81.55
2023-05-10T22:52:46.374Z,81.44
2023-05-10T22:55:12.765Z,81.21
2023-05-10T22:57:39.287Z,82.15
2023-05-10T23:00:06.487Z,83.85
2023-05-10T23:02:33.194Z,83.61
2023-05-10T23:04:59.702Z,82.89
2023-05-10T23:07:26.185Z,81.77
2023-05-10T23:09:52.629Z,80.95
2023-05-10T23:12:19.166Z,80.93
2023-05-10T23:14:46.670Z,82.11
2023-05-10T23:17:13.592Z,81.64
2023-05-10T23:19:40.075Z,81.81
2023-05-10T23:22:06.583Z,81.15
2023-05-10T23:24:33.112Z,82.67
2023-05-10T23:26:59.572Z,82.44
2023-05-10T23:29:26.736Z,83.10
2023-05-10T23:31:53.424Z,82.48
2023-05-10T23:34:19.959Z,82.09
2023-05-10T23:36:46.550Z,81.17
2023-05-10T23:39:13.548Z,80.90
2023-05-10T23:41:40.021Z,80.73
2023-05-10T23:44:06.633Z,80.32
2023-05-10T23:46:33.057Z,80.05
2023-05-10T23:48:59.521Z,79.79
2023-05-10T23:51:26.092Z,79.39
2023-05-10T23:53:52.540Z,79.19
2023-05-10T23:56:19.004Z,79.85
2023-05-10T23:58:46.407Z,80.88
